Batavia, NY (14020)

11:56 PM EDT on March 23, 2017 (GMT -0400)
Park Rd | | Change Station

Elev 932 ft 43.01 °N, 78.20 °W | Updated 2 seconds ago

Mostly Cloudy
Mostly Cloudy
29.7 °F
Feels Like 24 °F
N
4.9
Wind Variable Wind from SSE
Gusts 7.0 mph

Today
High -- | Low -- °F
--% Chance of Precip.
Yesterday
High -- | Low -- °F
Precip. -- in
Pressure 30.42 in
Visibility 10.0 miles
Clouds Overcast 11000 ft
Windchill 24 °F
Dew Point 18 °F
Humidity 56%
Rainfall 0.00 in
Snow Depth Not available.
7:10 AM 7:28 PM
Waning Crescent, 18% visible
METAR KROC 240254Z 13009KT 10SM OVC110 01/M10 A3038 RMK AO2 SLP299 T00061100 58021
Pressure 30.42 in
Visibility 10.0 miles
Clouds Overcast 11000 ft
Windchill 24 °F
Dew Point 18 °F
Humidity 56%
Rainfall 0.00 in
Snow Depth Not available.
7:10 AM 7:28 PM
Waning Crescent, 18% visible
METAR KROC 240254Z 13009KT 10SM OVC110 01/M10 A3038 RMK AO2 SLP299 T00061100 58021

Get Severe Weather Alerts

Thanks for signing up!

Be on the lookout for a verification email in your inbox.

You'll start receiving the daily forecast at 8 AM.

×

10-Day Weather Forecast

Almanac

Astronomy

Mar. 23, 2017 Rise Set
Actual Time
Civil Twilight
Nautical Twilight
Astronomical Twilight
Moon
Length of Visible Light
Length of Day
Tomorrow will be .
, % of the Moon is Illuminated

Today's Extremes

State Highs State Lows

Community

WunderPhotos

Upload Photos

1,962,540 photos uploaded!

WunderBlog® & News

Nearby

Air Quality

  Air Quality AQ Index Pollutant
Not available.

Snow Depth

Station Depth Elevation

Earthquake Activity

City Distance Mag. Time & Date
Minimum magnitude displayed is 2.5.

Earthquake Activity

City Distance Mag. Time & Date
Minimum magnitude displayed is 2.5.

Coastal Water Temperatures

Place Temperature

Stations

Nearby Weather Stations

Station Location Temp. Windchill Dew Point Humidity Wind Precip. Elev Updated Type
                   

Watches & Warnings

There are currently no watches in effect.